N122SP KGGG-KHOC
Flight info
| Callsign | N122SP |
|---|---|
| Flight time | N/A |
| Altitude | 27000 |
| Route | DOBIS Q184 BERKE J101 LIT J131 PXV J112 IIU Q139 GBEES Q176 BICKS |
| Aircraft | BE60/L-SDFGRY/C |
Departure
| Time | 2026-04-15 18:58 |
|---|---|
| Airport | East Texas Regional Airport (KGGG) |
Arrival
| Time | N/A |
|---|---|
| Airport | Highland County Airport (KHOC) |
| Time | Latitude | Longitude | Altitude | Speed | Heading |
|---|---|---|---|---|---|
| 2026-04-15 18:50 | 32.38245 | -94.71862 | 366 ft | 0 kts | 360° |
| 2026-04-15 18:54 | 32.38262 | -94.71846 | 361 ft | 12 kts | 56° |
| 2026-04-15 18:54 | 32.38371 | -94.71808 | 361 ft | 22 kts | 359° |
| 2026-04-15 18:54 | 32.38558 | -94.71814 | 360 ft | 31 kts | 360° |
| 2026-04-15 18:55 | 32.38798 | -94.71818 | 360 ft | 36 kts | 359° |
| 2026-04-15 18:55 | 32.39016 | -94.71958 | 362 ft | 38 kts | 309° |
| 2026-04-15 18:55 | 32.39171 | -94.72084 | 359 ft | 22 kts | 43° |
| 2026-04-15 18:55 | 32.39301 | -94.71943 | 364 ft | 29 kts | 43° |
| 2026-04-15 18:56 | 32.39387 | -94.71816 | 362 ft | 0 kts | 86° |
| 2026-04-15 18:56 | 32.39388 | -94.71801 | 362 ft | 0 kts | 84° |
| 2026-04-15 18:56 | 32.39388 | -94.71800 | 362 ft | 1 kts | 85° |
| 2026-04-15 18:56 | 32.39388 | -94.71796 | 362 ft | 0 kts | 86° |
| 2026-04-15 18:57 | 32.39388 | -94.71777 | 363 ft | 13 kts | 92° |
| 2026-04-15 18:57 | 32.39374 | -94.71670 | 364 ft | 11 kts | 154° |
| 2026-04-15 18:57 | 32.39331 | -94.71670 | 364 ft | 29 kts | 181° |
| 2026-04-15 18:58 | 32.38885 | -94.71658 | 360 ft | 94 kts | 178° |
| 2026-04-15 18:58 | 32.38177 | -94.71605 | 642 ft | 109 kts | 171° |
| 2026-04-15 18:58 | 32.37569 | -94.71115 | 1113 ft | 114 kts | 124° |
| 2026-04-15 18:58 | 32.37468 | -94.70072 | 1344 ft | 142 kts | 82° |
| 2026-04-15 18:59 | 32.37915 | -94.69012 | 1821 ft | 145 kts | 62° |
| 2026-04-15 18:59 | 32.38484 | -94.67994 | 2225 ft | 154 kts | 61° |
| 2026-04-15 18:59 | 32.39040 | -94.66953 | 2834 ft | 144 kts | 60° |
| 2026-04-15 18:59 | 32.39570 | -94.65943 | 3258 ft | 147 kts | 69° |
| 2026-04-15 19:00 | 32.40048 | -94.64867 | 3767 ft | 148 kts | 68° |
| 2026-04-15 19:00 | 32.40482 | -94.63761 | 4248 ft | 150 kts | 75° |
| 2026-04-15 19:00 | 32.40854 | -94.62550 | 4619 ft | 161 kts | 73° |
| 2026-04-15 19:00 | 32.41271 | -94.61292 | 5001 ft | 167 kts | 72° |
| 2026-04-15 19:01 | 32.41712 | -94.60001 | 5386 ft | 171 kts | 72° |
| 2026-04-15 19:01 | 32.42163 | -94.58684 | 5821 ft | 173 kts | 71° |
| 2026-04-15 19:01 | 32.42617 | -94.57358 | 6274 ft | 174 kts | 71° |
| 2026-04-15 19:01 | 32.43067 | -94.56046 | 6709 ft | 174 kts | 72° |
| 2026-04-15 19:02 | 32.43522 | -94.54712 | 7144 ft | 175 kts | 72° |
| 2026-04-15 19:02 | 32.43979 | -94.53375 | 7586 ft | 176 kts | 72° |
| 2026-04-15 19:02 | 32.44438 | -94.52030 | 8051 ft | 176 kts | 72° |
| 2026-04-15 19:02 | 32.44898 | -94.50686 | 8508 ft | 177 kts | 73° |
| 2026-04-15 19:03 | 32.45358 | -94.49335 | 8974 ft | 177 kts | 73° |
| 2026-04-15 19:03 | 32.45821 | -94.47978 | 9442 ft | 178 kts | 73° |
| 2026-04-15 19:03 | 32.46286 | -94.46613 | 9905 ft | 179 kts | 74° |
| 2026-04-15 19:03 | 32.46754 | -94.45240 | 10320 ft | 180 kts | 73° |
| 2026-04-15 19:04 | 32.47226 | -94.43857 | 10726 ft | 181 kts | 73° |
| 2026-04-15 19:04 | 32.47700 | -94.42463 | 11137 ft | 183 kts | 73° |
| 2026-04-15 19:04 | 32.48178 | -94.41060 | 11562 ft | 184 kts | 73° |
| 2026-04-15 19:04 | 32.48653 | -94.39665 | 11987 ft | 186 kts | 73° |
| 2026-04-15 19:05 | 32.49137 | -94.38242 | 12425 ft | 187 kts | 72° |
| 2026-04-15 19:05 | 32.49624 | -94.36807 | 12855 ft | 188 kts | 72° |
| 2026-04-15 19:05 | 32.50113 | -94.35368 | 13304 ft | 188 kts | 72° |
| 2026-04-15 19:05 | 32.50604 | -94.33924 | 13766 ft | 190 kts | 72° |
| 2026-04-15 19:06 | 32.51097 | -94.32471 | 14197 ft | 191 kts | 72° |
| 2026-04-15 19:06 | 32.51593 | -94.31010 | 14588 ft | 192 kts | 72° |
| 2026-04-15 19:06 | 32.52092 | -94.29539 | 15012 ft | 193 kts | 72° |
| 2026-04-15 19:06 | 32.52595 | -94.28058 | 15481 ft | 194 kts | 72° |
| 2026-04-15 19:07 | 32.53098 | -94.26569 | 15932 ft | 195 kts | 72° |
| 2026-04-15 19:07 | 32.53605 | -94.25072 | 16318 ft | 196 kts | 72° |
| 2026-04-15 19:07 | 32.54121 | -94.23548 | 16661 ft | 201 kts | 72° |
| 2026-04-15 19:07 | 32.54639 | -94.22016 | 17016 ft | 204 kts | 72° |
| 2026-04-15 19:08 | 32.55172 | -94.20442 | 17392 ft | 207 kts | 71° |
| 2026-04-15 19:08 | 32.55712 | -94.18845 | 17747 ft | 209 kts | 72° |
| 2026-04-15 19:08 | 32.56254 | -94.17240 | 18117 ft | 211 kts | 72° |
| 2026-04-15 19:08 | 32.56802 | -94.15618 | 18475 ft | 212 kts | 72° |
| 2026-04-15 19:09 | 32.57351 | -94.13989 | 18821 ft | 214 kts | 73° |
| 2026-04-15 19:09 | 32.57907 | -94.12342 | 19177 ft | 215 kts | 73° |
| 2026-04-15 19:09 | 32.58463 | -94.10691 | 19551 ft | 217 kts | 73° |
| 2026-04-15 19:09 | 32.59025 | -94.09025 | 19924 ft | 218 kts | 73° |
| 2026-04-15 19:10 | 32.59590 | -94.07347 | 20294 ft | 220 kts | 74° |
| 2026-04-15 19:10 | 32.60160 | -94.05656 | 20653 ft | 221 kts | 74° |
| 2026-04-15 19:10 | 32.60732 | -94.03954 | 21007 ft | 223 kts | 74° |
| 2026-04-15 19:10 | 32.61309 | -94.02239 | 21363 ft | 224 kts | 75° |
| 2026-04-15 19:11 | 32.61880 | -94.00542 | 21732 ft | 225 kts | 75° |
| 2026-04-15 19:11 | 32.62459 | -93.98816 | 22103 ft | 226 kts | 75° |
| 2026-04-15 19:11 | 32.63052 | -93.97045 | 22391 ft | 232 kts | 75° |
| 2026-04-15 19:11 | 32.63650 | -93.95258 | 22642 ft | 239 kts | 75° |
| 2026-04-15 19:12 | 32.64271 | -93.93408 | 22914 ft | 243 kts | 75° |
| 2026-04-15 19:12 | 32.64900 | -93.91537 | 23201 ft | 246 kts | 75° |
| 2026-04-15 19:12 | 32.65534 | -93.89644 | 23527 ft | 248 kts | 76° |
| 2026-04-15 19:12 | 32.66173 | -93.87735 | 23818 ft | 250 kts | 76° |
| 2026-04-15 19:13 | 32.66816 | -93.85816 | 24099 ft | 251 kts | 76° |
| 2026-04-15 19:13 | 32.67463 | -93.83879 | 24345 ft | 252 kts | 76° |
| 2026-04-15 19:13 | 32.68113 | -93.81936 | 24594 ft | 253 kts | 76° |
| 2026-04-15 19:13 | 32.68763 | -93.79989 | 24837 ft | 254 kts | 75° |
| 2026-04-15 19:14 | 32.69415 | -93.78038 | 25051 ft | 257 kts | 75° |
| 2026-04-15 19:14 | 32.70087 | -93.76009 | 25062 ft | 268 kts | 75° |
| 2026-04-15 19:14 | 32.70780 | -93.73930 | 25078 ft | 273 kts | 75° |
| 2026-04-15 19:14 | 32.71484 | -93.71822 | 25074 ft | 277 kts | 75° |
| 2026-04-15 19:15 | 32.72196 | -93.69688 | 25077 ft | 280 kts | 75° |
| 2026-04-15 19:15 | 32.72915 | -93.67522 | 25075 ft | 283 kts | 75° |
| 2026-04-15 19:15 | 32.73641 | -93.65340 | 25071 ft | 286 kts | 75° |
| 2026-04-15 19:15 | 32.74365 | -93.63161 | 25070 ft | 288 kts | 75° |
| 2026-04-15 19:16 | 32.75222 | -93.60992 | 25069 ft | 294 kts | 60° |
| 2026-04-15 19:16 | 32.76561 | -93.59133 | 25069 ft | 298 kts | 41° |
| 2026-04-15 19:16 | 32.78264 | -93.57731 | 25073 ft | 298 kts | 28° |
| 2026-04-15 19:16 | 32.80050 | -93.56464 | 25068 ft | 299 kts | 29° |
| 2026-04-15 19:17 | 32.81837 | -93.55181 | 25069 ft | 300 kts | 29° |
| 2026-04-15 19:17 | 32.83621 | -93.53894 | 25069 ft | 300 kts | 29° |
| 2026-04-15 19:17 | 32.85416 | -93.52604 | 25067 ft | 302 kts | 29° |
| 2026-04-15 19:17 | 32.87215 | -93.51311 | 25066 ft | 302 kts | 29° |
| 2026-04-15 19:18 | 32.89018 | -93.50013 | 25070 ft | 303 kts | 29° |
| 2026-04-15 19:18 | 32.90824 | -93.48710 | 25068 ft | 303 kts | 29° |
| 2026-04-15 19:18 | 32.94442 | -93.46103 | 25066 ft | 305 kts | 29° |
| 2026-04-15 19:19 | 32.96236 | -93.44808 | 25065 ft | 305 kts | 29° |
| 2026-04-15 19:19 | 32.98074 | -93.43480 | 25061 ft | 305 kts | 29° |
| 2026-04-15 19:19 | 32.99865 | -93.42188 | 25061 ft | 305 kts | 29° |
| 2026-04-15 19:19 | 33.01680 | -93.40876 | 25061 ft | 305 kts | 29° |
| 2026-04-15 19:20 | 33.03499 | -93.39561 | 25059 ft | 305 kts | 29° |
| 2026-04-15 19:20 | 33.05313 | -93.38248 | 25066 ft | 305 kts | 29° |
| 2026-04-15 19:20 | 33.07131 | -93.36934 | 25067 ft | 305 kts | 29° |
| 2026-04-15 19:20 | 33.08949 | -93.35617 | 25070 ft | 305 kts | 29° |
| 2026-04-15 19:21 | 33.10769 | -93.34299 | 25068 ft | 306 kts | 29° |
| 2026-04-15 19:21 | 33.12596 | -93.32975 | 25068 ft | 307 kts | 28° |
| 2026-04-15 19:21 | 33.14422 | -93.31651 | 25068 ft | 307 kts | 29° |
| 2026-04-15 19:21 | 33.16251 | -93.30325 | 25069 ft | 307 kts | 29° |
| 2026-04-15 19:22 | 33.18079 | -93.28998 | 25071 ft | 307 kts | 29° |
| 2026-04-15 19:22 | 33.19886 | -93.27685 | 25070 ft | 308 kts | 29° |
| 2026-04-15 19:22 | 33.21715 | -93.26357 | 25071 ft | 308 kts | 29° |
| 2026-04-15 19:22 | 33.23549 | -93.25024 | 25071 ft | 308 kts | 29° |
| 2026-04-15 19:23 | 33.25377 | -93.23695 | 25071 ft | 308 kts | 29° |
| 2026-04-15 19:23 | 33.27209 | -93.22362 | 25071 ft | 308 kts | 29° |
| 2026-04-15 19:23 | 33.29042 | -93.21028 | 25071 ft | 308 kts | 29° |
| 2026-04-15 19:23 | 33.30875 | -93.19693 | 25071 ft | 308 kts | 29° |
| 2026-04-15 19:24 | 33.32704 | -93.18360 | 25071 ft | 308 kts | 29° |
| 2026-04-15 19:24 | 33.34537 | -93.17024 | 25070 ft | 308 kts | 29° |
| 2026-04-15 19:24 | 33.36368 | -93.15688 | 25069 ft | 308 kts | 29° |
| 2026-04-15 19:24 | 33.38173 | -93.14371 | 25068 ft | 308 kts | 29° |
| 2026-04-15 19:25 | 33.40002 | -93.13036 | 25064 ft | 308 kts | 29° |
| 2026-04-15 19:25 | 33.41829 | -93.11701 | 25064 ft | 308 kts | 29° |
| 2026-04-15 19:25 | 33.43656 | -93.10366 | 25064 ft | 308 kts | 29° |
| 2026-04-15 19:25 | 33.45483 | -93.09030 | 25063 ft | 308 kts | 29° |
| 2026-04-15 19:26 | 33.47310 | -93.07694 | 25062 ft | 308 kts | 29° |
| 2026-04-15 19:26 | 33.49144 | -93.06352 | 25061 ft | 308 kts | 29° |
| 2026-04-15 19:26 | 33.50971 | -93.05014 | 25051 ft | 308 kts | 29° |
| 2026-04-15 19:26 | 33.52801 | -93.03672 | 25051 ft | 307 kts | 29° |
| 2026-04-15 19:27 | 33.54623 | -93.02337 | 25049 ft | 307 kts | 29° |
| 2026-04-15 19:27 | 33.56445 | -93.01001 | 25049 ft | 307 kts | 29° |
| 2026-04-15 19:27 | 33.58240 | -92.99684 | 25050 ft | 306 kts | 29° |
| 2026-04-15 19:27 | 33.60056 | -92.98350 | 25050 ft | 306 kts | 29° |
| 2026-04-15 19:28 | 33.61880 | -92.97012 | 25050 ft | 306 kts | 29° |
| 2026-04-15 19:28 | 33.63697 | -92.95676 | 25051 ft | 306 kts | 29° |
| 2026-04-15 19:28 | 33.65515 | -92.94339 | 25066 ft | 306 kts | 29° |
| 2026-04-15 19:28 | 33.67328 | -92.93006 | 25059 ft | 307 kts | 28° |
| 2026-04-15 19:29 | 33.69150 | -92.91665 | 25060 ft | 307 kts | 28° |
| 2026-04-15 19:29 | 33.70973 | -92.90323 | 25058 ft | 307 kts | 28° |
| 2026-04-15 19:29 | 33.72798 | -92.88978 | 25063 ft | 307 kts | 29° |
| 2026-04-15 19:29 | 33.74620 | -92.87636 | 25063 ft | 307 kts | 29° |
| 2026-04-15 19:30 | 33.76444 | -92.86290 | 25065 ft | 307 kts | 29° |
| 2026-04-15 19:30 | 33.78266 | -92.84946 | 25064 ft | 307 kts | 28° |
| 2026-04-15 19:30 | 33.80089 | -92.83600 | 25065 ft | 307 kts | 29° |
| 2026-04-15 19:30 | 33.81886 | -92.82273 | 25065 ft | 307 kts | 28° |
| 2026-04-15 19:31 | 33.83709 | -92.80926 | 25065 ft | 307 kts | 29° |
| 2026-04-15 19:31 | 33.85530 | -92.79580 | 25065 ft | 307 kts | 29° |
| 2026-04-15 19:31 | 33.87351 | -92.78233 | 25062 ft | 307 kts | 29° |
| 2026-04-15 19:31 | 33.89163 | -92.76891 | 25062 ft | 307 kts | 29° |
| 2026-04-15 19:32 | 33.90990 | -92.75538 | 25063 ft | 307 kts | 29° |
| 2026-04-15 19:32 | 33.92814 | -92.74187 | 25071 ft | 308 kts | 28° |
| 2026-04-15 19:32 | 33.94627 | -92.72843 | 25230 ft | 300 kts | 28° |
| 2026-04-15 19:32 | 33.96360 | -92.71555 | 25456 ft | 291 kts | 28° |
| 2026-04-15 19:33 | 33.98059 | -92.70295 | 25704 ft | 283 kts | 28° |
| 2026-04-15 19:33 | 33.99723 | -92.69063 | 25916 ft | 278 kts | 28° |
| 2026-04-15 19:33 | 34.01366 | -92.67844 | 26108 ft | 275 kts | 28° |
| 2026-04-15 19:33 | 34.02990 | -92.66637 | 26277 ft | 273 kts | 28° |
| 2026-04-15 19:34 | 34.04605 | -92.65438 | 26456 ft | 272 kts | 28° |
| 2026-04-15 19:34 | 34.06212 | -92.64243 | 26629 ft | 271 kts | 28° |
| 2026-04-15 19:34 | 34.07813 | -92.63052 | 26798 ft | 271 kts | 28° |
| 2026-04-15 19:34 | 34.09416 | -92.61859 | 26953 ft | 270 kts | 28° |
| 2026-04-15 19:35 | 34.11017 | -92.60667 | 27126 ft | 271 kts | 28° |
| 2026-04-15 19:35 | 34.12624 | -92.59470 | 27284 ft | 271 kts | 28° |
| 2026-04-15 19:35 | 34.14232 | -92.58272 | 27446 ft | 271 kts | 28° |
| 2026-04-15 19:35 | 34.15837 | -92.57075 | 27606 ft | 272 kts | 28° |
| 2026-04-15 19:36 | 34.17450 | -92.55872 | 27772 ft | 272 kts | 28° |
| 2026-04-15 19:36 | 34.19063 | -92.54669 | 27955 ft | 273 kts | 27° |
| 2026-04-15 19:36 | 34.20681 | -92.53459 | 28096 ft | 274 kts | 27° |
| 2026-04-15 19:36 | 34.22308 | -92.52245 | 28254 ft | 275 kts | 27° |
| 2026-04-15 19:37 | 34.23914 | -92.51045 | 28406 ft | 275 kts | 27° |
| 2026-04-15 19:37 | 34.25546 | -92.49824 | 28562 ft | 276 kts | 27° |
| 2026-04-15 19:37 | 34.27186 | -92.48597 | 28730 ft | 277 kts | 27° |
| 2026-04-15 19:37 | 34.28828 | -92.47369 | 28886 ft | 277 kts | 27° |
| 2026-04-15 19:38 | 34.30470 | -92.46140 | 29040 ft | 278 kts | 27° |
| 2026-04-15 19:38 | 34.32115 | -92.44908 | 29196 ft | 278 kts | 27° |
| 2026-04-15 19:38 | 34.33763 | -92.43672 | 29357 ft | 279 kts | 27° |
| 2026-04-15 19:38 | 34.35419 | -92.42430 | 29512 ft | 279 kts | 27° |
| 2026-04-15 19:39 | 34.37073 | -92.41191 | 29667 ft | 280 kts | 27° |
| 2026-04-15 19:39 | 34.38728 | -92.39948 | 29817 ft | 280 kts | 27° |
| 2026-04-15 19:39 | 34.40387 | -92.38702 | 29968 ft | 281 kts | 27° |
| 2026-04-15 19:39 | 34.42049 | -92.37454 | 30114 ft | 281 kts | 27° |
| 2026-04-15 19:40 | 34.43693 | -92.36219 | 30240 ft | 282 kts | 27° |
| 2026-04-15 19:40 | 34.45380 | -92.34950 | 30390 ft | 282 kts | 27° |
| 2026-04-15 19:40 | 34.47049 | -92.33695 | 30514 ft | 283 kts | 27° |
| 2026-04-15 19:40 | 34.48721 | -92.32437 | 30633 ft | 283 kts | 27° |
| 2026-04-15 19:41 | 34.50377 | -92.31190 | 30752 ft | 284 kts | 27° |
| 2026-04-15 19:41 | 34.52054 | -92.29926 | 30871 ft | 284 kts | 27° |
| 2026-04-15 19:41 | 34.53731 | -92.28662 | 30980 ft | 284 kts | 27° |
| 2026-04-15 19:41 | 34.55413 | -92.27394 | 31059 ft | 287 kts | 26° |
| 2026-04-15 19:42 | 34.57124 | -92.26105 | 31083 ft | 292 kts | 27° |
| 2026-04-15 19:42 | 34.58278 | -92.25234 | 31086 ft | 295 kts | 27° |
| 2026-04-15 19:42 | 34.60027 | -92.23911 | 31090 ft | 297 kts | 27° |
| 2026-04-15 19:42 | 34.61782 | -92.22584 | 31087 ft | 298 kts | 27° |
| 2026-04-15 19:43 | 34.64127 | -92.20812 | 31092 ft | 300 kts | 27° |
| 2026-04-15 19:43 | 34.65324 | -92.19907 | 31091 ft | 300 kts | 27° |
| 2026-04-15 19:43 | 34.68680 | -92.16913 | 31092 ft | 305 kts | 46° |
| 2026-04-15 19:44 | 34.71607 | -92.13163 | 31092 ft | 306 kts | 45° |
| 2026-04-15 19:44 | 34.74562 | -92.09401 | 31090 ft | 308 kts | 46° |
| 2026-04-15 19:45 | 34.77526 | -92.05613 | 31087 ft | 309 kts | 45° |
| 2026-04-15 19:45 | 34.80496 | -92.01817 | 31079 ft | 310 kts | 46° |
| 2026-04-15 19:46 | 34.83469 | -91.98011 | 31079 ft | 310 kts | 46° |
| 2026-04-15 19:46 | 34.86444 | -91.94200 | 31077 ft | 310 kts | 46° |
| 2026-04-15 19:47 | 34.89422 | -91.90379 | 31065 ft | 311 kts | 46° |
| 2026-04-15 19:47 | 34.92381 | -91.86580 | 31060 ft | 310 kts | 45° |
| 2026-04-15 19:48 | 34.95355 | -91.82757 | 31061 ft | 311 kts | 45° |
| 2026-04-15 19:48 | 34.98333 | -91.78923 | 31069 ft | 311 kts | 45° |
| 2026-04-15 19:49 | 35.01319 | -91.75078 | 31063 ft | 312 kts | 45° |
| 2026-04-15 19:49 | 35.04303 | -91.71228 | 31062 ft | 312 kts | 45° |
| 2026-04-15 19:50 | 35.07283 | -91.67380 | 31059 ft | 312 kts | 45° |
| 2026-04-15 19:50 | 35.10260 | -91.63531 | 31058 ft | 312 kts | 45° |
| 2026-04-15 19:51 | 35.13217 | -91.59703 | 31060 ft | 312 kts | 45° |
| 2026-04-15 19:51 | 35.16201 | -91.55837 | 31080 ft | 312 kts | 45° |
| 2026-04-15 19:52 | 35.19184 | -91.51967 | 31075 ft | 312 kts | 45° |
| 2026-04-15 19:52 | 35.22158 | -91.48104 | 31074 ft | 311 kts | 45° |
| 2026-04-15 19:53 | 35.25115 | -91.44259 | 31075 ft | 312 kts | 45° |
| 2026-04-15 19:53 | 35.28097 | -91.40378 | 31071 ft | 312 kts | 45° |
| 2026-04-15 19:54 | 35.30567 | -91.37158 | 31074 ft | 312 kts | 45° |
| 2026-04-15 19:55 | 35.33584 | -91.33223 | 31071 ft | 312 kts | 45° |
| 2026-04-15 19:55 | 35.36558 | -91.29339 | 31071 ft | 312 kts | 45° |
| 2026-04-15 19:56 | 35.39511 | -91.25477 | 31071 ft | 312 kts | 45° |
| 2026-04-15 19:56 | 35.42484 | -91.21585 | 31068 ft | 312 kts | 45° |
| 2026-04-15 19:57 | 35.45455 | -91.17692 | 31072 ft | 312 kts | 45° |
| 2026-04-15 19:57 | 35.48409 | -91.13814 | 31058 ft | 312 kts | 45° |
| 2026-04-15 19:58 | 35.51386 | -91.09907 | 31070 ft | 314 kts | 45° |
| 2026-04-15 19:58 | 35.54369 | -91.05983 | 31064 ft | 314 kts | 45° |
| 2026-04-15 19:59 | 35.57350 | -91.02058 | 31056 ft | 314 kts | 45° |
| 2026-04-15 19:59 | 35.60328 | -90.98132 | 31059 ft | 314 kts | 45° |
| 2026-04-15 20:00 | 35.63310 | -90.94197 | 31063 ft | 314 kts | 45° |
| 2026-04-15 20:00 | 35.66271 | -90.90284 | 31052 ft | 314 kts | 45° |
| 2026-04-15 20:01 | 35.69251 | -90.86342 | 31039 ft | 314 kts | 45° |
| 2026-04-15 20:01 | 35.72232 | -90.82394 | 31050 ft | 315 kts | 45° |
| 2026-04-15 20:02 | 35.75210 | -90.78445 | 31072 ft | 315 kts | 45° |
| 2026-04-15 20:02 | 35.78197 | -90.74477 | 31046 ft | 315 kts | 45° |
| 2026-04-15 20:03 | 35.81183 | -90.70510 | 31042 ft | 315 kts | 45° |
| 2026-04-15 20:03 | 35.84143 | -90.66571 | 31045 ft | 315 kts | 45° |
| 2026-04-15 20:04 | 35.87125 | -90.62599 | 31028 ft | 315 kts | 45° |
| 2026-04-15 20:04 | 35.90101 | -90.58629 | 31030 ft | 315 kts | 45° |
| 2026-04-15 20:05 | 35.93072 | -90.54662 | 31033 ft | 315 kts | 45° |
| 2026-04-15 20:05 | 35.96023 | -90.50715 | 31030 ft | 314 kts | 45° |
| 2026-04-15 20:06 | 35.98989 | -90.46745 | 31029 ft | 314 kts | 45° |
| 2026-04-15 20:06 | 36.01954 | -90.42771 | 31024 ft | 314 kts | 45° |
| 2026-04-15 20:07 | 36.04915 | -90.38799 | 31021 ft | 314 kts | 45° |
| 2026-04-15 20:07 | 36.07870 | -90.34828 | 31023 ft | 313 kts | 45° |
| 2026-04-15 20:08 | 36.10500 | -90.31291 | 31011 ft | 313 kts | 45° |